Terminal Aerodrome Forecast
Issued by NWS Duluth, MN

Home | Current Version | Previous Version | Text Only | Print | Product List | Glossary Off
Versions: 1 2 3 4 5 6 7 8 9 10 11 12 13 14 15 16 17 18 19 20 21 22 23 24

000
FTUS43 KDLH 101735
TAFDLH
TAF
KDLH 101735Z 1018/1118 29005KT P6SM -SHSN BKN018
     FM102000 23005KT P6SM SCT018 BKN140
     FM110600 10004KT P6SM -SHSN SCT009 OVC016
     FM111300 10005KT 3SM -SN BR OVC009=

USA.gov is the U.S. government's official web portal to all federal, state and local government web resources and services.